sensor_id;sensor_type;location;lat;lon;timestamp;pressure;altitude;pressure_sealevel;temperature;humidity
31717;BME280;18301;51.076;17.046;2023-04-05T00:00:21;100857.00;;;1.74;59.83
31717;BME280;18301;51.076;17.046;2023-04-05T00:05:23;100851.59;;;1.77;59.90
31717;BME280;18301;51.076;17.046;2023-04-05T00:10:31;100855.03;;;1.80;60.05
31717;BME280;18301;51.076;17.046;2023-04-05T00:15:32;100846.06;;;1.83;60.25
31717;BME280;18301;51.076;17.046;2023-04-05T00:20:34;100841.53;;;1.87;59.64
31717;BME280;18301;51.076;17.046;2023-04-05T00:25:37;100836.28;;;1.85;59.64
31717;BME280;18301;51.076;17.046;2023-04-05T00:30:39;100838.38;;;1.74;59.93
31717;BME280;18301;51.076;17.046;2023-04-05T00:35:41;100838.38;;;1.74;59.77
31717;BME280;18301;51.076;17.046;2023-04-05T00:40:42;100839.03;;;1.82;59.75
31717;BME280;18301;51.076;17.046;2023-04-05T00:45:44;100835.72;;;1.74;59.82
31717;BME280;18301;51.076;17.046;2023-04-05T00:50:48;100828.69;;;1.71;60.18
31717;BME280;18301;51.076;17.046;2023-04-05T00:55:50;100834.78;;;1.75;60.00
31717;BME280;18301;51.076;17.046;2023-04-05T01:01:16;100821.56;;;1.72;59.85
31717;BME280;18301;51.076;17.046;2023-04-05T01:11:44;100815.09;;;1.52;60.93
31717;BME280;18301;51.076;17.046;2023-04-05T01:16:47;100816.72;;;1.56;60.69
31717;BME280;18301;51.076;17.046;2023-04-05T01:21:57;100816.91;;;1.50;60.87
31717;BME280;18301;51.076;17.046;2023-04-05T01:37:59;100805.66;;;1.42;61.77
31717;BME280;18301;51.076;17.046;2023-04-05T01:43:01;100799.50;;;1.40;61.30
31717;BME280;18301;51.076;17.046;2023-04-05T01:48:03;100807.28;;;1.46;61.54
31717;BME280;18301;51.076;17.046;2023-04-05T01:53:07;100795.72;;;1.47;61.46
31717;BME280;18301;51.076;17.046;2023-04-05T01:58:09;100805.28;;;1.54;61.44
31717;BME280;18301;51.076;17.046;2023-04-05T02:03:11;100794.25;;;1.37;61.64
31717;BME280;18301;51.076;17.046;2023-04-05T02:08:12;100795.63;;;1.50;61.07
31717;BME280;18301;51.076;17.046;2023-04-05T02:13:14;100797.50;;;1.47;61.25
31717;BME280;18301;51.076;17.046;2023-04-05T02:18:16;100792.03;;;1.23;61.96
31717;BME280;18301;51.076;17.046;2023-04-05T02:23:22;100785.41;;;1.36;61.65
31717;BME280;18301;51.076;17.046;2023-04-05T02:28:24;100783.63;;;1.37;61.75
31717;BME280;18301;51.076;17.046;2023-04-05T02:33:26;100786.72;;;1.22;62.20
31717;BME280;18301;51.076;17.046;2023-04-05T02:38:28;100768.13;;;1.22;62.31
31717;BME280;18301;51.076;17.046;2023-04-05T02:43:29;100762.91;;;1.19;62.63
31717;BME280;18301;51.076;17.046;2023-04-05T02:48:31;100763.06;;;1.12;62.83
31717;BME280;18301;51.076;17.046;2023-04-05T02:53:33;100766.66;;;1.11;63.05
31717;BME280;18301;51.076;17.046;2023-04-05T02:58:35;100773.88;;;1.06;63.43
31717;BME280;18301;51.076;17.046;2023-04-05T03:03:36;100771.22;;;1.06;63.43
31717;BME280;18301;51.076;17.046;2023-04-05T03:08:42;100764.38;;;0.98;63.61
31717;BME280;18301;51.076;17.046;2023-04-05T03:13:48;100753.75;;;0.98;64.01
31717;BME280;18301;51.076;17.046;2023-04-05T03:18:50;100751.88;;;1.01;63.71
31717;BME280;18301;51.076;17.046;2023-04-05T03:23:51;100754.63;;;0.98;64.23
31717;BME280;18301;51.076;17.046;2023-04-05T03:28:53;100760.38;;;0.83;64.12
31717;BME280;18301;51.076;17.046;2023-04-05T03:33:54;100755.63;;;0.94;64.15
31717;BME280;18301;51.076;17.046;2023-04-05T03:38:56;100744.00;;;0.98;64.33
31717;BME280;18301;51.076;17.046;2023-04-05T03:43:57;100746.44;;;1.06;64.65
31717;BME280;18301;51.076;17.046;2023-04-05T03:49:00;100752.34;;;1.15;64.08
31717;BME280;18301;51.076;17.046;2023-04-05T03:54:01;100750.91;;;1.04;64.69
31717;BME280;18301;51.076;17.046;2023-04-05T03:59:03;100752.72;;;1.03;64.59
31717;BME280;18301;51.076;17.046;2023-04-05T04:04:04;100756.56;;;0.93;64.56
31717;BME280;18301;51.076;17.046;2023-04-05T04:09:06;100769.09;;;0.88;65.35
31717;BME280;18301;51.076;17.046;2023-04-05T04:14:07;100771.00;;;0.83;65.39
31717;BME280;18301;51.076;17.046;2023-04-05T04:19:08;100768.16;;;0.89;65.30
31717;BME280;18301;51.076;17.046;2023-04-05T04:24:10;100767.56;;;0.79;65.55
31717;BME280;18301;51.076;17.046;2023-04-05T04:29:19;100765.94;;;0.74;65.72
31717;BME280;18301;51.076;17.046;2023-04-05T04:34:20;100771.16;;;0.77;65.92
31717;BME280;18301;51.076;17.046;2023-04-05T04:39:21;100776.47;;;0.77;66.18
31717;BME280;18301;51.076;17.046;2023-04-05T04:44:27;100783.50;;;0.79;66.11
31717;BME280;18301;51.076;17.046;2023-04-05T04:49:31;100777.63;;;0.68;66.74
31717;BME280;18301;51.076;17.046;2023-04-05T04:54:34;100780.22;;;0.69;67.31
31717;BME280;18301;51.076;17.046;2023-04-05T04:59:36;100778.75;;;0.90;66.78
31717;BME280;18301;51.076;17.046;2023-04-05T05:04:37;100778.28;;;1.07;67.06
31717;BME280;18301;51.076;17.046;2023-04-05T05:09:42;100777.91;;;1.20;67.28
31717;BME280;18301;51.076;17.046;2023-04-05T05:14:43;100770.25;;;1.38;68.11
31717;BME280;18301;51.076;17.046;2023-04-05T05:19:45;100776.75;;;1.30;67.08
31717;BME280;18301;51.076;17.046;2023-04-05T05:24:46;100786.56;;;1.57;67.11
31717;BME280;18301;51.076;17.046;2023-04-05T05:29:48;100788.94;;;1.37;66.82
31717;BME280;18301;51.076;17.046;2023-04-05T05:34:49;100789.53;;;1.47;66.57
31717;BME280;18301;51.076;17.046;2023-04-05T05:39:51;100792.66;;;1.61;65.91
31717;BME280;18301;51.076;17.046;2023-04-05T05:44:52;100783.53;;;1.70;66.06
31717;BME280;18301;51.076;17.046;2023-04-05T05:49:54;100789.81;;;1.95;65.48
31717;BME280;18301;51.076;17.046;2023-04-05T05:54:56;100795.16;;;2.22;65.62
31717;BME280;18301;51.076;17.046;2023-04-05T05:59:57;100786.69;;;2.36;65.24
31717;BME280;18301;51.076;17.046;2023-04-05T06:04:59;100785.56;;;2.43;65.18
31717;BME280;18301;51.076;17.046;2023-04-05T06:10:06;100791.19;;;2.60;64.12
31717;BME280;18301;51.076;17.046;2023-04-05T06:15:08;100787.34;;;2.69;64.00
31717;BME280;18301;51.076;17.046;2023-04-05T06:20:10;100782.47;;;2.80;64.54
31717;BME280;18301;51.076;17.046;2023-04-05T06:25:12;100784.78;;;2.91;63.83
31717;BME280;18301;51.076;17.046;2023-04-05T06:30:13;100785.56;;;3.18;63.57
31717;BME280;18301;51.076;17.046;2023-04-05T06:35:15;100780.81;;;3.26;63.49
31717;BME280;18301;51.076;17.046;2023-04-05T06:40:17;100771.19;;;3.45;62.85
31717;BME280;18301;51.076;17.046;2023-04-05T06:45:18;100784.19;;;3.31;62.19
31717;BME280;18301;51.076;17.046;2023-04-05T06:50:20;100781.16;;;3.17;62.55
31717;BME280;18301;51.076;17.046;2023-04-05T06:55:21;100776.13;;;3.33;62.17
31717;BME280;18301;51.076;17.046;2023-04-05T07:00:23;100785.19;;;3.74;61.54
31717;BME280;18301;51.076;17.046;2023-04-05T07:05:24;100773.44;;;4.00;61.80
31717;BME280;18301;51.076;17.046;2023-04-05T07:10:26;100769.50;;;4.10;61.08
31717;BME280;18301;51.076;17.046;2023-04-05T07:15:27;100779.84;;;4.18;59.10
31717;BME280;18301;51.076;17.046;2023-04-05T07:20:29;100777.69;;;4.06;59.77
31717;BME280;18301;51.076;17.046;2023-04-05T07:25:31;100780.53;;;4.23;59.97
31717;BME280;18301;51.076;17.046;2023-04-05T07:30:32;100775.38;;;4.41;60.00
31717;BME280;18301;51.076;17.046;2023-04-05T07:35:33;100774.38;;;4.64;59.06
31717;BME280;18301;51.076;17.046;2023-04-05T07:40:35;100784.34;;;4.80;57.46
31717;BME280;18301;51.076;17.046;2023-04-05T07:45:37;100783.25;;;4.84;58.34
31717;BME280;18301;51.076;17.046;2023-04-05T07:50:38;100788.06;;;4.97;56.27
31717;BME280;18301;51.076;17.046;2023-04-05T07:55:41;100795.56;;;4.89;57.24
31717;BME280;18301;51.076;17.046;2023-04-05T08:00:43;100799.88;;;4.71;57.13
31717;BME280;18301;51.076;17.046;2023-04-05T08:05:44;100796.34;;;4.50;59.28
31717;BME280;18301;51.076;17.046;2023-04-05T08:10:46;100798.78;;;4.56;58.71
31717;BME280;18301;51.076;17.046;2023-04-05T08:15:47;100795.56;;;4.89;58.91
31717;BME280;18301;51.076;17.046;2023-04-05T08:20:55;100798.38;;;4.65;60.20
31717;BME280;18301;51.076;17.046;2023-04-05T08:25:57;100797.31;;;4.69;60.76
31717;BME280;18301;51.076;17.046;2023-04-05T08:30:59;100795.69;;;4.85;61.09
31717;BME280;18301;51.076;17.046;2023-04-05T08:36:04;100780.09;;;4.95;61.32
31717;BME280;18301;51.076;17.046;2023-04-05T08:41:17;100784.06;;;4.87;61.04
31717;BME280;18301;51.076;17.046;2023-04-05T08:46:19;100769.81;;;5.06;60.22
31717;BME280;18301;51.076;17.046;2023-04-05T08:51:24;100767.00;;;5.66;60.01
31717;BME280;18301;51.076;17.046;2023-04-05T08:56:30;100760.78;;;5.85;59.21
31717;BME280;18301;51.076;17.046;2023-04-05T09:01:35;100771.88;;;6.32;58.67
31717;BME280;18301;51.076;17.046;2023-04-05T09:06:37;100757.78;;;6.63;57.35
31717;BME280;18301;51.076;17.046;2023-04-05T09:11:39;100766.91;;;6.77;56.88
31717;BME280;18301;51.076;17.046;2023-04-05T09:16:41;100764.38;;;6.91;55.99
31717;BME280;18301;51.076;17.046;2023-04-05T09:22:00;100757.72;;;7.15;54.84
31717;BME280;18301;51.076;17.046;2023-04-05T09:27:11;100756.81;;;6.99;54.50
31717;BME280;18301;51.076;17.046;2023-04-05T09:32:15;100759.03;;;6.74;52.11
31717;BME280;18301;51.076;17.046;2023-04-05T09:37:19;100752.41;;;6.81;53.98
31717;BME280;18301;51.076;17.046;2023-04-05T09:42:21;100755.22;;;6.95;53.68
31717;BME280;18301;51.076;17.046;2023-04-05T09:47:27;100750.63;;;7.14;53.75
31717;BME280;18301;51.076;17.046;2023-04-05T09:52:32;100741.22;;;7.06;52.94
31717;BME280;18301;51.076;17.046;2023-04-05T09:57:36;100745.91;;;7.02;51.67
31717;BME280;18301;51.076;17.046;2023-04-05T10:02:38;100748.56;;;7.35;52.51
31717;BME280;18301;51.076;17.046;2023-04-05T10:07:41;100738.97;;;7.47;52.29
31717;BME280;18301;51.076;17.046;2023-04-05T10:12:44;100734.06;;;7.22;51.88
31717;BME280;18301;51.076;17.046;2023-04-05T10:18:03;100728.97;;;7.18;51.54
31717;BME280;18301;51.076;17.046;2023-04-05T10:23:08;100726.50;;;6.97;52.11
31717;BME280;18301;51.076;17.046;2023-04-05T10:28:34;100738.03;;;6.64;51.05
31717;BME280;18301;51.076;17.046;2023-04-05T10:33:44;100729.34;;;6.77;52.97
31717;BME280;18301;51.076;17.046;2023-04-05T10:39:00;100713.94;;;6.98;52.77
31717;BME280;18301;51.076;17.046;2023-04-05T10:44:04;100719.56;;;6.93;52.62
31717;BME280;18301;51.076;17.046;2023-04-05T10:49:36;100707.06;;;6.92;52.93
31717;BME280;18301;51.076;17.046;2023-04-05T10:54:38;100707.06;;;6.92;51.47
31717;BME280;18301;51.076;17.046;2023-04-05T10:59:42;100698.16;;;7.25;54.51
31717;BME280;18301;51.076;17.046;2023-04-05T11:04:45;100687.59;;;7.53;52.90
31717;BME280;18301;51.076;17.046;2023-04-05T11:15:34;100696.84;;;6.83;53.16
31717;BME280;18301;51.076;17.046;2023-04-05T11:25:52;100679.81;;;7.33;53.79
31717;BME280;18301;51.076;17.046;2023-04-05T11:30:55;100683.81;;;7.57;52.50
31717;BME280;18301;51.076;17.046;2023-04-05T11:36:00;100676.25;;;7.64;52.92
31717;BME280;18301;51.076;17.046;2023-04-05T11:41:13;100686.72;;;7.37;52.25
31717;BME280;18301;51.076;17.046;2023-04-05T11:46:18;100681.00;;;7.27;52.62
31717;BME280;18301;51.076;17.046;2023-04-05T11:51:22;100692.28;;;6.85;53.11
31717;BME280;18301;51.076;17.046;2023-04-05T11:56:24;100679.56;;;6.88;54.32
31717;BME280;18301;51.076;17.046;2023-04-05T12:01:26;100681.53;;;6.85;55.27
31717;BME280;18301;51.076;17.046;2023-04-05T12:06:27;100688.34;;;6.75;55.16
31717;BME280;18301;51.076;17.046;2023-04-05T12:11:29;100675.50;;;6.97;55.82
31717;BME280;18301;51.076;17.046;2023-04-05T12:16:33;100670.78;;;7.66;56.11
31717;BME280;18301;51.076;17.046;2023-04-05T12:21:35;100660.91;;;7.82;54.77
31717;BME280;18301;51.076;17.046;2023-04-05T12:26:37;100658.72;;;7.89;54.34
31717;BME280;18301;51.076;17.046;2023-04-05T12:31:43;100659.53;;;7.43;54.30
31717;BME280;18301;51.076;17.046;2023-04-05T12:36:45;100664.03;;;7.43;54.50
31717;BME280;18301;51.076;17.046;2023-04-05T12:41:57;100666.84;;;7.08;57.37
31717;BME280;18301;51.076;17.046;2023-04-05T12:47:00;100658.63;;;6.95;58.27
31717;BME280;18301;51.076;17.046;2023-04-05T12:52:09;100654.22;;;7.10;58.81
31717;BME280;18301;51.076;17.046;2023-04-05T12:57:11;100650.63;;;7.27;58.69
31717;BME280;18301;51.076;17.046;2023-04-05T13:02:14;100649.50;;;7.15;59.54
31717;BME280;18301;51.076;17.046;2023-04-05T13:07:16;100658.69;;;7.27;59.07
31717;BME280;18301;51.076;17.046;2023-04-05T13:12:17;100652.59;;;7.55;59.18
31717;BME280;18301;51.076;17.046;2023-04-05T13:17:20;100652.09;;;7.48;58.97
31717;BME280;18301;51.076;17.046;2023-04-05T13:22:21;100656.22;;;7.38;58.24
31717;BME280;18301;51.076;17.046;2023-04-05T13:27:23;100657.09;;;7.23;57.84
31717;BME280;18301;51.076;17.046;2023-04-05T13:32:24;100660.06;;;7.18;59.48
31717;BME280;18301;51.076;17.046;2023-04-05T13:37:26;100662.19;;;6.62;64.71
31717;BME280;18301;51.076;17.046;2023-04-05T13:42:27;100672.28;;;6.40;64.82
31717;BME280;18301;51.076;17.046;2023-04-05T13:47:29;100670.66;;;6.20;67.38
31717;BME280;18301;51.076;17.046;2023-04-05T13:52:30;100673.25;;;6.21;68.00
31717;BME280;18301;51.076;17.046;2023-04-05T13:57:32;100663.00;;;6.47;66.94
31717;BME280;18301;51.076;17.046;2023-04-05T14:02:33;100656.50;;;6.68;66.85
31717;BME280;18301;51.076;17.046;2023-04-05T14:07:35;100645.59;;;6.72;67.04
31717;BME280;18301;51.076;17.046;2023-04-05T14:12:37;100649.34;;;6.85;66.64
31717;BME280;18301;51.076;17.046;2023-04-05T14:17:39;100653.41;;;6.76;65.94
31717;BME280;18301;51.076;17.046;2023-04-05T14:22:41;100654.16;;;6.62;66.08
31717;BME280;18301;51.076;17.046;2023-04-05T14:27:42;100642.63;;;6.60;65.29
31717;BME280;18301;51.076;17.046;2023-04-05T14:32:44;100644.44;;;6.60;66.22
31717;BME280;18301;51.076;17.046;2023-04-05T14:37:45;100640.84;;;6.77;65.71
31717;BME280;18301;51.076;17.046;2023-04-05T14:42:47;100643.16;;;7.00;65.06
31717;BME280;18301;51.076;17.046;2023-04-05T14:47:50;100651.13;;;6.68;63.96
31717;BME280;18301;51.076;17.046;2023-04-05T14:52:52;100647.13;;;6.60;63.80
31717;BME280;18301;51.076;17.046;2023-04-05T14:57:54;100642.69;;;6.92;63.41
31717;BME280;18301;51.076;17.046;2023-04-05T15:02:55;100637.56;;;7.21;62.95
31717;BME280;18301;51.076;17.046;2023-04-05T15:07:57;100633.56;;;7.28;62.67
31717;BME280;18301;51.076;17.046;2023-04-05T15:12:58;100633.03;;;7.37;60.08
31717;BME280;18301;51.076;17.046;2023-04-05T15:18:01;100638.75;;;7.31;60.23
31717;BME280;18301;51.076;17.046;2023-04-05T15:23:02;100629.22;;;7.41;60.10
31717;BME280;18301;51.076;17.046;2023-04-05T15:28:04;100628.19;;;7.44;60.19
31717;BME280;18301;51.076;17.046;2023-04-05T15:33:07;100632.88;;;7.24;61.00
31717;BME280;18301;51.076;17.046;2023-04-05T15:38:08;100629.84;;;7.14;62.07
31717;BME280;18301;51.076;17.046;2023-04-05T15:43:10;100625.91;;;7.04;62.18
31717;BME280;18301;51.076;17.046;2023-04-05T15:48:11;100632.78;;;6.77;63.08
31717;BME280;18301;51.076;17.046;2023-04-05T15:53:14;100630.72;;;6.66;62.58
31717;BME280;18301;51.076;17.046;2023-04-05T15:58:15;100639.97;;;6.43;62.84
31717;BME280;18301;51.076;17.046;2023-04-05T16:03:17;100637.97;;;6.13;62.92
31717;BME280;18301;51.076;17.046;2023-04-05T16:08:18;100631.91;;;6.10;63.04
31717;BME280;18301;51.076;17.046;2023-04-05T16:13:20;100641.72;;;6.09;63.37
31717;BME280;18301;51.076;17.046;2023-04-05T16:18:21;100629.44;;;6.05;62.84
31717;BME280;18301;51.076;17.046;2023-04-05T16:23:24;100645.81;;;5.99;62.91
31717;BME280;18301;51.076;17.046;2023-04-05T16:28:26;100636.81;;;5.83;63.99
31717;BME280;18301;51.076;17.046;2023-04-05T16:33:27;100641.50;;;5.77;64.36
31717;BME280;18301;51.076;17.046;2023-04-05T16:38:28;100641.66;;;5.74;64.91
31717;BME280;18301;51.076;17.046;2023-04-05T16:43:30;100644.69;;;5.49;65.48
31717;BME280;18301;51.076;17.046;2023-04-05T16:48:31;100645.72;;;5.47;64.75
31717;BME280;18301;51.076;17.046;2023-04-05T16:53:33;100647.94;;;5.56;65.00
31717;BME280;18301;51.076;17.046;2023-04-05T16:58:34;100640.75;;;5.57;64.63
31717;BME280;18301;51.076;17.046;2023-04-05T17:03:36;100632.72;;;5.57;64.62
31717;BME280;18301;51.076;17.046;2023-04-05T17:08:37;100642.44;;;5.59;64.93
31717;BME280;18301;51.076;17.046;2023-04-05T17:13:39;100640.72;;;5.58;65.06
31717;BME280;18301;51.076;17.046;2023-04-05T17:18:42;100633.00;;;5.69;65.14
31717;BME280;18301;51.076;17.046;2023-04-05T17:23:43;100639.31;;;5.68;64.88
31717;BME280;18301;51.076;17.046;2023-04-05T17:28:45;100644.47;;;5.54;65.58
31717;BME280;18301;51.076;17.046;2023-04-05T17:33:46;100648.25;;;5.50;65.60
31717;BME280;18301;51.076;17.046;2023-04-05T17:38:49;100654.09;;;5.58;65.60
31717;BME280;18301;51.076;17.046;2023-04-05T17:43:50;100668.91;;;5.65;65.46
31717;BME280;18301;51.076;17.046;2023-04-05T17:48:52;100664.44;;;5.47;65.86
31717;BME280;18301;51.076;17.046;2023-04-05T17:53:56;100669.38;;;5.37;66.04
31717;BME280;18301;51.076;17.046;2023-04-05T17:58:57;100680.25;;;5.15;66.62
31717;BME280;18301;51.076;17.046;2023-04-05T18:03:59;100683.09;;;5.11;67.28
31717;BME280;18301;51.076;17.046;2023-04-05T18:09:01;100684.16;;;5.08;67.43
31717;BME280;18301;51.076;17.046;2023-04-05T18:14:04;100685.06;;;5.07;67.44
31717;BME280;18301;51.076;17.046;2023-04-05T18:19:05;100700.19;;;5.08;67.80
31717;BME280;18301;51.076;17.046;2023-04-05T18:24:09;100694.19;;;5.03;68.28
31717;BME280;18301;51.076;17.046;2023-04-05T18:29:10;100700.75;;;4.96;68.41
31717;BME280;18301;51.076;17.046;2023-04-05T18:34:12;100714.16;;;4.75;69.06
31717;BME280;18301;51.076;17.046;2023-04-05T18:39:14;100713.50;;;4.50;69.82
31717;BME280;18301;51.076;17.046;2023-04-05T18:44:15;100707.06;;;4.33;70.30
31717;BME280;18301;51.076;17.046;2023-04-05T18:49:17;100730.34;;;4.31;71.01
31717;BME280;18301;51.076;17.046;2023-04-05T18:54:19;100734.06;;;4.27;70.99
31717;BME280;18301;51.076;17.046;2023-04-05T18:59:21;100725.66;;;4.16;71.54
31717;BME280;18301;51.076;17.046;2023-04-05T19:04:22;100727.50;;;4.14;72.30
31717;BME280;18301;51.076;17.046;2023-04-05T19:09:24;100730.09;;;4.15;71.84
31717;BME280;18301;51.076;17.046;2023-04-05T19:14:26;100727.16;;;4.01;72.39
31717;BME280;18301;51.076;17.046;2023-04-05T19:19:28;100725.91;;;3.88;72.60
31717;BME280;18301;51.076;17.046;2023-04-05T19:24:29;100729.00;;;3.77;73.24
31717;BME280;18301;51.076;17.046;2023-04-05T19:29:33;100728.97;;;3.79;72.98
31717;BME280;18301;51.076;17.046;2023-04-05T19:34:36;100731.22;;;3.66;73.55
31717;BME280;18301;51.076;17.046;2023-04-05T19:39:38;100741.88;;;3.67;74.26
31717;BME280;18301;51.076;17.046;2023-04-05T19:44:47;100730.81;;;3.55;73.71
31717;BME280;18301;51.076;17.046;2023-04-05T19:49:50;100731.97;;;3.47;74.60
31717;BME280;18301;51.076;17.046;2023-04-05T19:54:53;100733.59;;;3.52;74.61
31717;BME280;18301;51.076;17.046;2023-04-05T19:59:54;100728.25;;;3.52;74.59
31717;BME280;18301;51.076;17.046;2023-04-05T20:04:56;100721.53;;;3.41;74.51
31717;BME280;18301;51.076;17.046;2023-04-05T20:09:57;100721.88;;;3.32;74.51
31717;BME280;18301;51.076;17.046;2023-04-05T20:14:59;100716.78;;;3.26;75.81
31717;BME280;18301;51.076;17.046;2023-04-05T20:20:00;100721.22;;;3.27;75.20
31717;BME280;18301;51.076;17.046;2023-04-05T20:25:34;100702.53;;;3.27;75.94
31717;BME280;18301;51.076;17.046;2023-04-05T20:30:31;100702.53;;;3.27;75.91
31717;BME280;18301;51.076;17.046;2023-04-05T20:35:33;100701.38;;;3.11;75.46
31717;BME280;18301;51.076;17.046;2023-04-05T20:40:36;100700.81;;;3.03;76.02
31717;BME280;18301;51.076;17.046;2023-04-05T20:45:37;100688.34;;;3.03;76.55
31717;BME280;18301;51.076;17.046;2023-04-05T20:50:39;100689.22;;;3.04;76.98
31717;BME280;18301;51.076;17.046;2023-04-05T20:55:41;100688.59;;;2.97;76.75
31717;BME280;18301;51.076;17.046;2023-04-05T21:00:42;100689.03;;;2.85;76.85
31717;BME280;18301;51.076;17.046;2023-04-05T21:05:44;100686.66;;;2.77;77.67
31717;BME280;18301;51.076;17.046;2023-04-05T21:10:45;100692.09;;;2.74;77.86
31717;BME280;18301;51.076;17.046;2023-04-05T21:15:47;100685.03;;;2.73;77.85
31717;BME280;18301;51.076;17.046;2023-04-05T21:20:49;100689.75;;;2.65;77.99
31717;BME280;18301;51.076;17.046;2023-04-05T21:25:55;100688.34;;;2.80;78.85
31717;BME280;18301;51.076;17.046;2023-04-05T21:30:57;100684.53;;;2.87;78.29
31717;BME280;18301;51.076;17.046;2023-04-05T21:35:59;100695.25;;;2.85;78.30
31717;BME280;18301;51.076;17.046;2023-04-05T21:41:00;100691.88;;;2.80;78.23
31717;BME280;18301;51.076;17.046;2023-04-05T21:46:02;100694.59;;;2.79;79.09
31717;BME280;18301;51.076;17.046;2023-04-05T21:51:03;100679.34;;;2.82;78.70
31717;BME280;18301;51.076;17.046;2023-04-05T21:56:05;100674.09;;;2.81;78.44
31717;BME280;18301;51.076;17.046;2023-04-05T22:01:06;100683.19;;;2.75;77.83
31717;BME280;18301;51.076;17.046;2023-04-05T22:06:08;100679.69;;;2.73;77.97
31717;BME280;18301;51.076;17.046;2023-04-05T22:11:09;100674.38;;;2.73;77.79
31717;BME280;18301;51.076;17.046;2023-04-05T22:16:11;100689.53;;;2.71;78.15
31717;BME280;18301;51.076;17.046;2023-04-05T22:21:12;100687.00;;;2.68;77.74
31717;BME280;18301;51.076;17.046;2023-04-05T22:26:14;100685.47;;;2.61;78.00
31717;BME280;18301;51.076;17.046;2023-04-05T22:31:15;100684.94;;;2.51;77.67
31717;BME280;18301;51.076;17.046;2023-04-05T22:36:17;100685.03;;;2.49;77.15
31717;BME280;18301;51.076;17.046;2023-04-05T22:41:18;100682.63;;;2.42;77.50
31717;BME280;18301;51.076;17.046;2023-04-05T22:46:20;100690.16;;;2.29;77.57
31717;BME280;18301;51.076;17.046;2023-04-05T22:51:22;100685.16;;;2.20;77.73
31717;BME280;18301;51.076;17.046;2023-04-05T22:56:23;100689.84;;;2.13;77.62
31717;BME280;18301;51.076;17.046;2023-04-05T23:01:24;100699.63;;;2.13;77.80
31717;BME280;18301;51.076;17.046;2023-04-05T23:06:26;100701.66;;;2.04;77.54
31717;BME280;18301;51.076;17.046;2023-04-05T23:11:28;100698.38;;;1.96;77.60
31717;BME280;18301;51.076;17.046;2023-04-05T23:16:29;100696.75;;;1.92;77.11
31717;BME280;18301;51.076;17.046;2023-04-05T23:21:31;100689.69;;;1.91;77.21
31717;BME280;18301;51.076;17.046;2023-04-05T23:26:32;100691.63;;;1.86;77.13
31717;BME280;18301;51.076;17.046;2023-04-05T23:31:34;100695.44;;;1.79;77.11
31717;BME280;18301;51.076;17.046;2023-04-05T23:36:36;100688.34;;;1.78;77.43
31717;BME280;18301;51.076;17.046;2023-04-05T23:41:38;100688.56;;;1.72;77.20
31717;BME280;18301;51.076;17.046;2023-04-05T23:46:39;100687.16;;;1.60;77.15
31717;BME280;18301;51.076;17.046;2023-04-05T23:51:41;100687.31;;;1.55;77.32
31717;BME280;18301;51.076;17.046;2023-04-05T23:56:43;100687.41;;;1.52;77.33
